sensor_id;sensor_type;location;lat;lon;timestamp;temperature;humidity
30999;DHT22;20549;50.042;8.968;2023-01-19T00:01:15;-0.70;87.30
30999;DHT22;20549;50.042;8.968;2023-01-19T00:03:42;-0.70;87.40
30999;DHT22;20549;50.042;8.968;2023-01-19T00:06:09;-0.70;87.40
30999;DHT22;20549;50.042;8.968;2023-01-19T00:08:35;-0.70;87.50
30999;DHT22;20549;50.042;8.968;2023-01-19T00:11:02;-0.70;87.50
30999;DHT22;20549;50.042;8.968;2023-01-19T00:13:28;-0.70;87.40
30999;DHT22;20549;50.042;8.968;2023-01-19T00:15:55;-0.70;87.40
30999;DHT22;20549;50.042;8.968;2023-01-19T00:18:22;-0.70;87.50
30999;DHT22;20549;50.042;8.968;2023-01-19T00:20:48;-0.70;87.60
30999;DHT22;20549;50.042;8.968;2023-01-19T00:23:15;-0.70;87.50
30999;DHT22;20549;50.042;8.968;2023-01-19T00:25:41;-0.70;87.70
30999;DHT22;20549;50.042;8.968;2023-01-19T00:28:11;-0.70;87.80
30999;DHT22;20549;50.042;8.968;2023-01-19T00:30:37;-0.70;87.80
30999;DHT22;20549;50.042;8.968;2023-01-19T00:33:04;-0.70;87.80
30999;DHT22;20549;50.042;8.968;2023-01-19T00:35:30;-0.70;88.00
30999;DHT22;20549;50.042;8.968;2023-01-19T00:37:57;-0.70;88.00
30999;DHT22;20549;50.042;8.968;2023-01-19T00:40:24;-0.70;88.00
30999;DHT22;20549;50.042;8.968;2023-01-19T00:42:50;-0.70;88.00
30999;DHT22;20549;50.042;8.968;2023-01-19T00:45:18;-0.70;88.00
30999;DHT22;20549;50.042;8.968;2023-01-19T00:47:47;-0.70;88.00
30999;DHT22;20549;50.042;8.968;2023-01-19T00:50:13;-0.70;88.10
30999;DHT22;20549;50.042;8.968;2023-01-19T00:52:39;-0.70;88.20
30999;DHT22;20549;50.042;8.968;2023-01-19T00:55:06;-0.70;88.20
30999;DHT22;20549;50.042;8.968;2023-01-19T00:57:33;-0.80;88.20
30999;DHT22;20549;50.042;8.968;2023-01-19T00:59:59;-0.80;88.30
30999;DHT22;20549;50.042;8.968;2023-01-19T01:02:26;-0.70;88.40
30999;DHT22;20549;50.042;8.968;2023-01-19T01:04:52;-0.80;88.30
30999;DHT22;20549;50.042;8.968;2023-01-19T01:07:22;-0.70;89.20
30999;DHT22;20549;50.042;8.968;2023-01-19T01:09:48;-0.70;88.50
30999;DHT22;20549;50.042;8.968;2023-01-19T01:12:15;-0.80;88.30
30999;DHT22;20549;50.042;8.968;2023-01-19T01:14:41;-0.80;88.30
30999;DHT22;20549;50.042;8.968;2023-01-19T01:17:08;-0.80;88.30
30999;DHT22;20549;50.042;8.968;2023-01-19T01:19:35;-0.80;88.20
30999;DHT22;20549;50.042;8.968;2023-01-19T01:22:01;-0.80;88.30
30999;DHT22;20549;50.042;8.968;2023-01-19T01:24:28;-0.80;88.30
30999;DHT22;20549;50.042;8.968;2023-01-19T01:26:54;-0.80;88.30
30999;DHT22;20549;50.042;8.968;2023-01-19T01:29:21;-0.80;88.50
30999;DHT22;20549;50.042;8.968;2023-01-19T01:31:47;-0.80;88.50
30999;DHT22;20549;50.042;8.968;2023-01-19T01:34:14;-0.80;88.50
30999;DHT22;20549;50.042;8.968;2023-01-19T01:36:41;-0.80;88.50
30999;DHT22;20549;50.042;8.968;2023-01-19T01:39:07;-0.80;88.50
30999;DHT22;20549;50.042;8.968;2023-01-19T01:41:34;-0.80;88.50
30999;DHT22;20549;50.042;8.968;2023-01-19T01:44:00;-0.90;88.50
30999;DHT22;20549;50.042;8.968;2023-01-19T01:46:28;-0.80;89.20
30999;DHT22;20549;50.042;8.968;2023-01-19T01:48:56;-0.90;88.30
30999;DHT22;20549;50.042;8.968;2023-01-19T01:51:31;-0.90;88.60
30999;DHT22;20549;50.042;8.968;2023-01-19T01:56:33;-0.90;88.70
30999;DHT22;20549;50.042;8.968;2023-01-19T01:58:58;-0.90;88.80
30999;DHT22;20549;50.042;8.968;2023-01-19T02:01:24;-1.00;88.80
30999;DHT22;20549;50.042;8.968;2023-01-19T02:04:09;-1.00;88.80
30999;DHT22;20549;50.042;8.968;2023-01-19T02:06:36;-1.00;88.80
30999;DHT22;20549;50.042;8.968;2023-01-19T02:09:21;-1.00;88.90
30999;DHT22;20549;50.042;8.968;2023-01-19T02:12:05;-1.00;89.10
30999;DHT22;20549;50.042;8.968;2023-01-19T02:14:50;-1.10;88.90
30999;DHT22;20549;50.042;8.968;2023-01-19T02:17:16;-1.00;89.10
30999;DHT22;20549;50.042;8.968;2023-01-19T02:19:43;-1.10;89.20
30999;DHT22;20549;50.042;8.968;2023-01-19T02:22:32;-1.10;89.40
30999;DHT22;20549;50.042;8.968;2023-01-19T02:24:57;-1.10;89.50
30999;DHT22;20549;50.042;8.968;2023-01-19T02:27:24;-1.00;89.60
30999;DHT22;20549;50.042;8.968;2023-01-19T02:29:50;-1.10;89.40
30999;DHT22;20549;50.042;8.968;2023-01-19T02:32:17;-1.00;89.70
30999;DHT22;20549;50.042;8.968;2023-01-19T02:34:44;-1.00;89.80
30999;DHT22;20549;50.042;8.968;2023-01-19T02:37:11;-1.00;90.00
30999;DHT22;20549;50.042;8.968;2023-01-19T02:39:44;-1.00;90.10
30999;DHT22;20549;50.042;8.968;2023-01-19T02:42:17;-1.00;90.20
30999;DHT22;20549;50.042;8.968;2023-01-19T02:44:43;-0.90;90.20
30999;DHT22;20549;50.042;8.968;2023-01-19T02:47:09;-0.90;90.30
30999;DHT22;20549;50.042;8.968;2023-01-19T02:49:36;-0.80;90.40
30999;DHT22;20549;50.042;8.968;2023-01-19T02:52:02;-0.70;90.60
30999;DHT22;20549;50.042;8.968;2023-01-19T02:57:20;-0.60;90.80
30999;DHT22;20549;50.042;8.968;2023-01-19T03:00:21;-0.50;90.90
30999;DHT22;20549;50.042;8.968;2023-01-19T03:02:48;-0.40;90.90
30999;DHT22;20549;50.042;8.968;2023-01-19T03:08:27;-0.20;90.80
30999;DHT22;20549;50.042;8.968;2023-01-19T03:11:08;-0.10;90.70
30999;DHT22;20549;50.042;8.968;2023-01-19T03:16:27;0.10;90.70
30999;DHT22;20549;50.042;8.968;2023-01-19T03:18:52;0.10;90.60
30999;DHT22;20549;50.042;8.968;2023-01-19T03:21:17;0.20;90.50
30999;DHT22;20549;50.042;8.968;2023-01-19T03:23:44;0.30;90.30
30999;DHT22;20549;50.042;8.968;2023-01-19T03:26:12;0.30;90.20
30999;DHT22;20549;50.042;8.968;2023-01-19T03:28:37;0.30;90.00
30999;DHT22;20549;50.042;8.968;2023-01-19T03:31:06;0.30;89.90
30999;DHT22;20549;50.042;8.968;2023-01-19T03:33:31;0.40;89.80
30999;DHT22;20549;50.042;8.968;2023-01-19T03:35:58;0.40;89.70
30999;DHT22;20549;50.042;8.968;2023-01-19T03:38:24;0.40;89.40
30999;DHT22;20549;50.042;8.968;2023-01-19T03:40:54;0.40;89.00
30999;DHT22;20549;50.042;8.968;2023-01-19T03:43:19;0.40;88.90
30999;DHT22;20549;50.042;8.968;2023-01-19T03:45:46;0.40;88.80
30999;DHT22;20549;50.042;8.968;2023-01-19T03:48:13;0.30;88.50
30999;DHT22;20549;50.042;8.968;2023-01-19T03:50:39;0.30;88.50
30999;DHT22;20549;50.042;8.968;2023-01-19T03:53:07;0.30;88.50
30999;DHT22;20549;50.042;8.968;2023-01-19T03:55:33;0.20;88.50
30999;DHT22;20549;50.042;8.968;2023-01-19T03:57:59;0.20;88.30
30999;DHT22;20549;50.042;8.968;2023-01-19T04:00:26;0.10;88.20
30999;DHT22;20549;50.042;8.968;2023-01-19T04:02:52;0.10;88.30
30999;DHT22;20549;50.042;8.968;2023-01-19T04:05:19;0.10;88.30
30999;DHT22;20549;50.042;8.968;2023-01-19T04:07:48;0.00;88.30
30999;DHT22;20549;50.042;8.968;2023-01-19T04:10:15;0.00;87.70
30999;DHT22;20549;50.042;8.968;2023-01-19T04:12:41;-0.10;88.60
30999;DHT22;20549;50.042;8.968;2023-01-19T04:15:07;-0.10;88.80
30999;DHT22;20549;50.042;8.968;2023-01-19T04:17:34;-0.10;88.90
30999;DHT22;20549;50.042;8.968;2023-01-19T04:20:01;-0.20;89.20
30999;DHT22;20549;50.042;8.968;2023-01-19T04:22:28;-0.20;89.50
30999;DHT22;20549;50.042;8.968;2023-01-19T04:24:54;-0.20;89.80
30999;DHT22;20549;50.042;8.968;2023-01-19T04:27:20;-0.20;90.10
30999;DHT22;20549;50.042;8.968;2023-01-19T04:29:47;-0.20;90.30
30999;DHT22;20549;50.042;8.968;2023-01-19T04:32:14;-0.10;90.60
30999;DHT22;20549;50.042;8.968;2023-01-19T04:34:40;-0.10;90.80
30999;DHT22;20549;50.042;8.968;2023-01-19T04:37:07;0.00;91.00
30999;DHT22;20549;50.042;8.968;2023-01-19T04:39:33;0.10;91.20
30999;DHT22;20549;50.042;8.968;2023-01-19T04:42:00;0.20;91.20
30999;DHT22;20549;50.042;8.968;2023-01-19T04:44:27;0.30;91.30
30999;DHT22;20549;50.042;8.968;2023-01-19T04:46:53;0.30;91.20
30999;DHT22;20549;50.042;8.968;2023-01-19T04:49:20;0.40;91.10
30999;DHT22;20549;50.042;8.968;2023-01-19T04:51:46;0.50;91.10
30999;DHT22;20549;50.042;8.968;2023-01-19T04:54:13;0.60;90.90
30999;DHT22;20549;50.042;8.968;2023-01-19T04:56:39;0.60;90.80
30999;DHT22;20549;50.042;8.968;2023-01-19T04:59:06;0.60;90.70
30999;DHT22;20549;50.042;8.968;2023-01-19T05:01:33;0.70;90.60
30999;DHT22;20549;50.042;8.968;2023-01-19T05:03:59;0.70;90.40
30999;DHT22;20549;50.042;8.968;2023-01-19T05:06:26;0.70;90.30
30999;DHT22;20549;50.042;8.968;2023-01-19T05:08:52;0.70;90.10
30999;DHT22;20549;50.042;8.968;2023-01-19T05:11:19;0.70;89.90
30999;DHT22;20549;50.042;8.968;2023-01-19T05:13:46;0.70;89.70
30999;DHT22;20549;50.042;8.968;2023-01-19T05:16:12;0.70;89.50
30999;DHT22;20549;50.042;8.968;2023-01-19T05:18:39;0.60;89.30
30999;DHT22;20549;50.042;8.968;2023-01-19T05:21:05;0.60;89.30
30999;DHT22;20549;50.042;8.968;2023-01-19T05:23:32;0.50;89.20
30999;DHT22;20549;50.042;8.968;2023-01-19T05:25:59;0.40;89.30
30999;DHT22;20549;50.042;8.968;2023-01-19T05:28:29;0.40;89.50
30999;DHT22;20549;50.042;8.968;2023-01-19T05:30:55;0.30;89.70
30999;DHT22;20549;50.042;8.968;2023-01-19T05:33:21;0.30;90.10
30999;DHT22;20549;50.042;8.968;2023-01-19T05:35:51;0.30;90.30
30999;DHT22;20549;50.042;8.968;2023-01-19T05:38:17;0.30;90.70
30999;DHT22;20549;50.042;8.968;2023-01-19T05:40:44;0.30;91.00
30999;DHT22;20549;50.042;8.968;2023-01-19T05:43:11;0.40;91.40
30999;DHT22;20549;50.042;8.968;2023-01-19T05:45:37;0.50;91.60
30999;DHT22;20549;50.042;8.968;2023-01-19T05:48:07;0.50;91.80
30999;DHT22;20549;50.042;8.968;2023-01-19T05:50:33;0.70;92.00
30999;DHT22;20549;50.042;8.968;2023-01-19T05:53:00;0.70;92.00
30999;DHT22;20549;50.042;8.968;2023-01-19T05:55:26;0.80;92.10
30999;DHT22;20549;50.042;8.968;2023-01-19T05:57:52;0.90;92.10
30999;DHT22;20549;50.042;8.968;2023-01-19T06:00:19;1.00;92.00
30999;DHT22;20549;50.042;8.968;2023-01-19T06:02:46;1.10;92.00
30999;DHT22;20549;50.042;8.968;2023-01-19T06:05:12;1.20;92.00
30999;DHT22;20549;50.042;8.968;2023-01-19T06:07:39;1.30;92.00
30999;DHT22;20549;50.042;8.968;2023-01-19T06:10:05;1.30;91.90
30999;DHT22;20549;50.042;8.968;2023-01-19T06:12:32;1.40;92.00
30999;DHT22;20549;50.042;8.968;2023-01-19T06:14:59;1.50;92.10
30999;DHT22;20549;50.042;8.968;2023-01-19T06:17:25;1.50;92.10
30999;DHT22;20549;50.042;8.968;2023-01-19T06:19:52;1.60;92.10
30999;DHT22;20549;50.042;8.968;2023-01-19T06:22:18;1.70;92.00
30999;DHT22;20549;50.042;8.968;2023-01-19T06:24:45;1.80;92.00
30999;DHT22;20549;50.042;8.968;2023-01-19T06:27:12;1.80;91.90
30999;DHT22;20549;50.042;8.968;2023-01-19T06:29:38;1.90;92.00
30999;DHT22;20549;50.042;8.968;2023-01-19T06:32:05;2.00;92.00
30999;DHT22;20549;50.042;8.968;2023-01-19T06:34:31;2.00;91.90
30999;DHT22;20549;50.042;8.968;2023-01-19T06:36:58;2.10;91.90
30999;DHT22;20549;50.042;8.968;2023-01-19T06:39:24;2.20;91.90
30999;DHT22;20549;50.042;8.968;2023-01-19T06:41:51;2.20;91.80
30999;DHT22;20549;50.042;8.968;2023-01-19T06:44:18;2.30;91.80
30999;DHT22;20549;50.042;8.968;2023-01-19T06:46:44;2.30;91.80
30999;DHT22;20549;50.042;8.968;2023-01-19T06:49:11;2.40;91.80
30999;DHT22;20549;50.042;8.968;2023-01-19T06:51:37;2.40;91.80
30999;DHT22;20549;50.042;8.968;2023-01-19T06:54:04;2.50;91.80
30999;DHT22;20549;50.042;8.968;2023-01-19T06:56:31;2.50;91.80
30999;DHT22;20549;50.042;8.968;2023-01-19T06:58:57;2.60;91.80
30999;DHT22;20549;50.042;8.968;2023-01-19T07:01:24;2.60;91.70
30999;DHT22;20549;50.042;8.968;2023-01-19T07:03:50;2.60;91.70
30999;DHT22;20549;50.042;8.968;2023-01-19T07:06:17;2.70;91.70
30999;DHT22;20549;50.042;8.968;2023-01-19T07:08:44;2.70;91.50
30999;DHT22;20549;50.042;8.968;2023-01-19T07:11:10;2.80;91.50
30999;DHT22;20549;50.042;8.968;2023-01-19T07:13:37;2.80;91.50
30999;DHT22;20549;50.042;8.968;2023-01-19T07:16:06;2.90;91.40
30999;DHT22;20549;50.042;8.968;2023-01-19T07:18:33;2.80;91.30
30999;DHT22;20549;50.042;8.968;2023-01-19T07:20:59;2.90;91.30
30999;DHT22;20549;50.042;8.968;2023-01-19T07:23:26;2.90;91.30
30999;DHT22;20549;50.042;8.968;2023-01-19T07:25:52;2.90;91.30
30999;DHT22;20549;50.042;8.968;2023-01-19T07:28:19;2.90;91.40
30999;DHT22;20549;50.042;8.968;2023-01-19T07:30:48;3.00;91.50
30999;DHT22;20549;50.042;8.968;2023-01-19T07:33:12;3.00;91.50
30999;DHT22;20549;50.042;8.968;2023-01-19T07:35:39;3.00;91.50
30999;DHT22;20549;50.042;8.968;2023-01-19T07:38:05;3.00;91.50
30999;DHT22;20549;50.042;8.968;2023-01-19T07:40:32;3.10;91.60
30999;DHT22;20549;50.042;8.968;2023-01-19T07:42:58;3.10;91.60
30999;DHT22;20549;50.042;8.968;2023-01-19T07:45:25;3.20;91.60
30999;DHT22;20549;50.042;8.968;2023-01-19T07:47:52;3.20;91.60
30999;DHT22;20549;50.042;8.968;2023-01-19T07:50:18;3.20;91.60
30999;DHT22;20549;50.042;8.968;2023-01-19T07:52:45;3.30;91.60
30999;DHT22;20549;50.042;8.968;2023-01-19T07:55:11;3.30;91.60
30999;DHT22;20549;50.042;8.968;2023-01-19T07:57:38;3.30;91.30
30999;DHT22;20549;50.042;8.968;2023-01-19T08:00:05;3.40;91.30
30999;DHT22;20549;50.042;8.968;2023-01-19T08:02:31;3.40;91.20
30999;DHT22;20549;50.042;8.968;2023-01-19T08:04:58;3.40;91.20
30999;DHT22;20549;50.042;8.968;2023-01-19T08:07:24;3.40;91.20
30999;DHT22;20549;50.042;8.968;2023-01-19T08:09:51;3.40;91.20
30999;DHT22;20549;50.042;8.968;2023-01-19T08:12:18;3.40;91.30
30999;DHT22;20549;50.042;8.968;2023-01-19T08:14:44;3.40;91.30
30999;DHT22;20549;50.042;8.968;2023-01-19T08:17:11;3.50;91.30
30999;DHT22;20549;50.042;8.968;2023-01-19T08:19:37;3.50;91.20
30999;DHT22;20549;50.042;8.968;2023-01-19T08:22:04;3.50;91.00
30999;DHT22;20549;50.042;8.968;2023-01-19T08:24:30;3.50;90.90
30999;DHT22;20549;50.042;8.968;2023-01-19T08:26:58;3.50;90.80
30999;DHT22;20549;50.042;8.968;2023-01-19T08:29:24;3.50;90.80
30999;DHT22;20549;50.042;8.968;2023-01-19T08:31:50;3.50;90.70
30999;DHT22;20549;50.042;8.968;2023-01-19T08:34:17;3.50;90.90
30999;DHT22;20549;50.042;8.968;2023-01-19T08:36:43;3.50;91.00
30999;DHT22;20549;50.042;8.968;2023-01-19T08:39:10;3.60;91.40
30999;DHT22;20549;50.042;8.968;2023-01-19T08:41:37;3.60;91.80
30999;DHT22;20549;50.042;8.968;2023-01-19T08:44:03;3.70;91.90
30999;DHT22;20549;50.042;8.968;2023-01-19T08:46:30;3.80;92.00
30999;DHT22;20549;50.042;8.968;2023-01-19T08:48:56;3.90;91.90
30999;DHT22;20549;50.042;8.968;2023-01-19T08:51:23;4.00;91.90
30999;DHT22;20549;50.042;8.968;2023-01-19T08:56:26;4.30;92.50
30999;DHT22;20549;50.042;8.968;2023-01-19T08:58:53;4.90;93.80
30999;DHT22;20549;50.042;8.968;2023-01-19T09:01:20;5.20;93.20
30999;DHT22;20549;50.042;8.968;2023-01-19T09:03:46;5.40;92.20
30999;DHT22;20549;50.042;8.968;2023-01-19T09:06:14;5.60;91.50
30999;DHT22;20549;50.042;8.968;2023-01-19T09:08:39;5.70;90.60
30999;DHT22;20549;50.042;8.968;2023-01-19T09:11:08;5.80;89.90
30999;DHT22;20549;50.042;8.968;2023-01-19T09:13:33;5.80;88.80
30999;DHT22;20549;50.042;8.968;2023-01-19T09:16:00;5.80;88.10
30999;DHT22;20549;50.042;8.968;2023-01-19T09:18:26;5.70;87.40
30999;DHT22;20549;50.042;8.968;2023-01-19T09:20:55;5.70;86.70
30999;DHT22;20549;50.042;8.968;2023-01-19T09:23:19;5.60;86.40
30999;DHT22;20549;50.042;8.968;2023-01-19T09:25:45;5.50;86.10
30999;DHT22;20549;50.042;8.968;2023-01-19T09:28:13;5.40;86.10
30999;DHT22;20549;50.042;8.968;2023-01-19T09:30:39;5.40;86.30
30999;DHT22;20549;50.042;8.968;2023-01-19T09:33:06;5.30;86.50
30999;DHT22;20549;50.042;8.968;2023-01-19T09:35:35;5.20;86.10
30999;DHT22;20549;50.042;8.968;2023-01-19T09:38:01;5.20;86.90
30999;DHT22;20549;50.042;8.968;2023-01-19T09:40:28;5.10;87.10
30999;DHT22;20549;50.042;8.968;2023-01-19T09:42:55;5.10;87.40
30999;DHT22;20549;50.042;8.968;2023-01-19T09:45:33;5.10;87.70
30999;DHT22;20549;50.042;8.968;2023-01-19T09:47:56;5.10;87.90
30999;DHT22;20549;50.042;8.968;2023-01-19T09:50:24;5.10;88.00
30999;DHT22;20549;50.042;8.968;2023-01-19T09:52:53;5.10;88.30
30999;DHT22;20549;50.042;8.968;2023-01-19T09:55:18;5.10;88.40
30999;DHT22;20549;50.042;8.968;2023-01-19T09:57:43;5.10;88.50
30999;DHT22;20549;50.042;8.968;2023-01-19T10:00:15;5.20;87.80
30999;DHT22;20549;50.042;8.968;2023-01-19T10:02:52;5.20;88.70
30999;DHT22;20549;50.042;8.968;2023-01-19T10:05:25;5.20;88.70
30999;DHT22;20549;50.042;8.968;2023-01-19T10:10:32;5.30;88.80
30999;DHT22;20549;50.042;8.968;2023-01-19T10:16:18;5.40;89.10
30999;DHT22;20549;50.042;8.968;2023-01-19T10:18:46;5.50;89.10
30999;DHT22;20549;50.042;8.968;2023-01-19T10:23:54;5.70;88.80
30999;DHT22;20549;50.042;8.968;2023-01-19T10:26:31;5.80;89.10
30999;DHT22;20549;50.042;8.968;2023-01-19T10:29:01;5.90;89.40
30999;DHT22;20549;50.042;8.968;2023-01-19T10:31:22;6.10;89.90
30999;DHT22;20549;50.042;8.968;2023-01-19T10:33:49;6.20;90.10
30999;DHT22;20549;50.042;8.968;2023-01-19T10:36:20;6.50;90.30
30999;DHT22;20549;50.042;8.968;2023-01-19T10:38:44;6.70;89.80
30999;DHT22;20549;50.042;8.968;2023-01-19T10:41:16;6.90;88.90
30999;DHT22;20549;50.042;8.968;2023-01-19T10:43:41;7.10;88.20
30999;DHT22;20549;50.042;8.968;2023-01-19T10:46:28;7.30;87.60
30999;DHT22;20549;50.042;8.968;2023-01-19T10:48:51;7.40;86.80
30999;DHT22;20549;50.042;8.968;2023-01-19T10:51:17;7.60;86.00
30999;DHT22;20549;50.042;8.968;2023-01-19T10:53:56;7.70;84.10
30999;DHT22;20549;50.042;8.968;2023-01-19T10:56:27;7.70;83.10
30999;DHT22;20549;50.042;8.968;2023-01-19T10:58:52;7.80;83.00
30999;DHT22;20549;50.042;8.968;2023-01-19T11:01:20;7.80;82.60
30999;DHT22;20549;50.042;8.968;2023-01-19T11:03:45;7.70;82.10
30999;DHT22;20549;50.042;8.968;2023-01-19T11:06:22;7.70;81.70
30999;DHT22;20549;50.042;8.968;2023-01-19T11:08:48;7.70;81.40
30999;DHT22;20549;50.042;8.968;2023-01-19T11:11:14;7.70;81.70
30999;DHT22;20549;50.042;8.968;2023-01-19T11:13:41;7.60;81.40
30999;DHT22;20549;50.042;8.968;2023-01-19T11:18:37;7.60;81.80
30999;DHT22;20549;50.042;8.968;2023-01-19T11:21:10;7.60;82.00
30999;DHT22;20549;50.042;8.968;2023-01-19T11:23:38;7.60;81.40
30999;DHT22;20549;50.042;8.968;2023-01-19T11:26:05;7.60;81.40
30999;DHT22;20549;50.042;8.968;2023-01-19T11:28:33;7.60;81.10
30999;DHT22;20549;50.042;8.968;2023-01-19T11:30:59;7.60;81.20
30999;DHT22;20549;50.042;8.968;2023-01-19T11:33:35;7.50;81.30
30999;DHT22;20549;50.042;8.968;2023-01-19T11:36:02;7.50;81.50
30999;DHT22;20549;50.042;8.968;2023-01-19T11:38:27;7.50;81.60
30999;DHT22;20549;50.042;8.968;2023-01-19T11:40:54;7.50;81.50
30999;DHT22;20549;50.042;8.968;2023-01-19T11:43:21;7.40;81.40
30999;DHT22;20549;50.042;8.968;2023-01-19T11:45:47;7.40;81.70
30999;DHT22;20549;50.042;8.968;2023-01-19T11:48:31;7.30;81.80
30999;DHT22;20549;50.042;8.968;2023-01-19T11:50:55;7.30;81.80
30999;DHT22;20549;50.042;8.968;2023-01-19T11:53:22;7.30;81.80
30999;DHT22;20549;50.042;8.968;2023-01-19T11:55:55;7.20;81.80
30999;DHT22;20549;50.042;8.968;2023-01-19T11:58:20;7.20;81.90
30999;DHT22;20549;50.042;8.968;2023-01-19T12:00:57;7.20;82.00
30999;DHT22;20549;50.042;8.968;2023-01-19T12:03:32;7.20;81.80
30999;DHT22;20549;50.042;8.968;2023-01-19T12:06:02;7.20;82.30
30999;DHT22;20549;50.042;8.968;2023-01-19T12:08:29;7.20;82.00
30999;DHT22;20549;50.042;8.968;2023-01-19T12:10:54;7.20;82.00
30999;DHT22;20549;50.042;8.968;2023-01-19T12:13:23;7.20;82.00
30999;DHT22;20549;50.042;8.968;2023-01-19T12:15:57;7.30;82.00
30999;DHT22;20549;50.042;8.968;2023-01-19T12:18:23;7.30;82.10
30999;DHT22;20549;50.042;8.968;2023-01-19T12:20:52;7.30;82.00
30999;DHT22;20549;50.042;8.968;2023-01-19T12:23:46;7.30;82.00
30999;DHT22;20549;50.042;8.968;2023-01-19T12:26:19;7.30;81.70
30999;DHT22;20549;50.042;8.968;2023-01-19T12:28:43;7.30;81.40
30999;DHT22;20549;50.042;8.968;2023-01-19T12:31:08;7.20;81.20
30999;DHT22;20549;50.042;8.968;2023-01-19T12:33:35;7.10;81.30
30999;DHT22;20549;50.042;8.968;2023-01-19T12:36:07;7.10;81.50
30999;DHT22;20549;50.042;8.968;2023-01-19T12:38:47;7.10;81.70
30999;DHT22;20549;50.042;8.968;2023-01-19T12:41:25;7.00;81.80
30999;DHT22;20549;50.042;8.968;2023-01-19T12:46:56;6.90;82.00
30999;DHT22;20549;50.042;8.968;2023-01-19T12:49:33;6.90;82.20
30999;DHT22;20549;50.042;8.968;2023-01-19T12:55:00;6.70;82.30
30999;DHT22;20549;50.042;8.968;2023-01-19T12:57:26;6.70;82.50
30999;DHT22;20549;50.042;8.968;2023-01-19T12:59:58;6.60;83.00
30999;DHT22;20549;50.042;8.968;2023-01-19T13:08:26;6.50;83.20
30999;DHT22;20549;50.042;8.968;2023-01-19T13:18:54;6.30;85.00
30999;DHT22;20549;50.042;8.968;2023-01-19T13:21:33;6.30;85.60
30999;DHT22;20549;50.042;8.968;2023-01-19T13:23:59;6.30;86.40
30999;DHT22;20549;50.042;8.968;2023-01-19T13:26:38;6.30;86.70
30999;DHT22;20549;50.042;8.968;2023-01-19T13:29:09;6.30;86.80
30999;DHT22;20549;50.042;8.968;2023-01-19T13:31:34;6.30;86.80
30999;DHT22;20549;50.042;8.968;2023-01-19T13:34:00;6.30;86.80
30999;DHT22;20549;50.042;8.968;2023-01-19T13:36:30;6.30;86.70
30999;DHT22;20549;50.042;8.968;2023-01-19T13:38:53;6.30;86.70
30999;DHT22;20549;50.042;8.968;2023-01-19T13:41:22;6.20;86.80
30999;DHT22;20549;50.042;8.968;2023-01-19T13:43:46;6.20;86.80
30999;DHT22;20549;50.042;8.968;2023-01-19T13:46:13;6.20;87.00
30999;DHT22;20549;50.042;8.968;2023-01-19T13:48:39;6.20;87.40
30999;DHT22;20549;50.042;8.968;2023-01-19T13:51:09;6.10;87.50
30999;DHT22;20549;50.042;8.968;2023-01-19T13:53:33;6.10;87.90
30999;DHT22;20549;50.042;8.968;2023-01-19T13:56:19;6.10;87.90
30999;DHT22;20549;50.042;8.968;2023-01-19T13:58:41;6.10;88.30
30999;DHT22;20549;50.042;8.968;2023-01-19T14:01:20;6.10;88.40
30999;DHT22;20549;50.042;8.968;2023-01-19T14:03:46;6.10;88.60
30999;DHT22;20549;50.042;8.968;2023-01-19T14:06:19;6.00;88.50
30999;DHT22;20549;50.042;8.968;2023-01-19T14:08:39;6.10;88.50
30999;DHT22;20549;50.042;8.968;2023-01-19T14:11:11;6.00;88.50
30999;DHT22;20549;50.042;8.968;2023-01-19T14:13:33;6.00;88.40
30999;DHT22;20549;50.042;8.968;2023-01-19T14:16:06;6.00;88.50
30999;DHT22;20549;50.042;8.968;2023-01-19T14:18:32;6.00;88.50
30999;DHT22;20549;50.042;8.968;2023-01-19T14:21:05;6.00;88.50
30999;DHT22;20549;50.042;8.968;2023-01-19T14:28:51;5.90;88.60
30999;DHT22;20549;50.042;8.968;2023-01-19T14:31:21;5.80;88.60
30999;DHT22;20549;50.042;8.968;2023-01-19T14:33:48;5.80;88.80
30999;DHT22;20549;50.042;8.968;2023-01-19T14:38:46;5.80;89.10
30999;DHT22;20549;50.042;8.968;2023-01-19T14:41:20;5.80;89.30
30999;DHT22;20549;50.042;8.968;2023-01-19T14:43:42;5.70;89.40
30999;DHT22;20549;50.042;8.968;2023-01-19T14:46:13;5.70;89.60
30999;DHT22;20549;50.042;8.968;2023-01-19T14:48:35;5.70;89.70
30999;DHT22;20549;50.042;8.968;2023-01-19T14:51:02;5.60;89.70
30999;DHT22;20549;50.042;8.968;2023-01-19T14:53:28;5.70;90.00
30999;DHT22;20549;50.042;8.968;2023-01-19T14:55:58;5.60;90.00
30999;DHT22;20549;50.042;8.968;2023-01-19T14:58:25;5.60;90.00
30999;DHT22;20549;50.042;8.968;2023-01-19T15:00:50;5.60;90.00
30999;DHT22;20549;50.042;8.968;2023-01-19T15:03:17;5.60;90.10
30999;DHT22;20549;50.042;8.968;2023-01-19T15:05:44;5.60;90.20
30999;DHT22;20549;50.042;8.968;2023-01-19T15:08:11;5.60;90.20
30999;DHT22;20549;50.042;8.968;2023-01-19T15:10:37;5.50;90.30
30999;DHT22;20549;50.042;8.968;2023-01-19T15:13:03;5.50;90.30
30999;DHT22;20549;50.042;8.968;2023-01-19T15:15:30;5.50;90.40
30999;DHT22;20549;50.042;8.968;2023-01-19T15:17:57;5.50;90.40
30999;DHT22;20549;50.042;8.968;2023-01-19T15:20:23;5.50;90.50
30999;DHT22;20549;50.042;8.968;2023-01-19T15:22:49;5.50;90.50
30999;DHT22;20549;50.042;8.968;2023-01-19T15:25:21;5.40;90.60
30999;DHT22;20549;50.042;8.968;2023-01-19T15:27:46;5.40;90.60
30999;DHT22;20549;50.042;8.968;2023-01-19T15:30:22;5.40;90.70
30999;DHT22;20549;50.042;8.968;2023-01-19T15:32:47;5.40;90.70
30999;DHT22;20549;50.042;8.968;2023-01-19T15:35:20;5.30;90.70
30999;DHT22;20549;50.042;8.968;2023-01-19T15:37:46;5.30;90.70
30999;DHT22;20549;50.042;8.968;2023-01-19T15:40:13;5.30;90.80
30999;DHT22;20549;50.042;8.968;2023-01-19T15:42:39;5.30;90.90
30999;DHT22;20549;50.042;8.968;2023-01-19T15:45:30;5.30;90.90
30999;DHT22;20549;50.042;8.968;2023-01-19T15:47:44;5.30;90.90
30999;DHT22;20549;50.042;8.968;2023-01-19T15:50:11;5.20;90.90
30999;DHT22;20549;50.042;8.968;2023-01-19T15:52:37;5.20;91.00
30999;DHT22;20549;50.042;8.968;2023-01-19T15:55:04;5.20;91.20
30999;DHT22;20549;50.042;8.968;2023-01-19T15:57:30;5.20;91.30
30999;DHT22;20549;50.042;8.968;2023-01-19T15:59:57;5.10;91.40
30999;DHT22;20549;50.042;8.968;2023-01-19T16:02:24;5.20;91.50
30999;DHT22;20549;50.042;8.968;2023-01-19T16:04:50;5.10;91.50
30999;DHT22;20549;50.042;8.968;2023-01-19T16:07:17;5.10;91.50
30999;DHT22;20549;50.042;8.968;2023-01-19T16:09:43;5.10;91.60
30999;DHT22;20549;50.042;8.968;2023-01-19T16:12:10;5.10;91.70
30999;DHT22;20549;50.042;8.968;2023-01-19T16:14:36;5.10;91.80
30999;DHT22;20549;50.042;8.968;2023-01-19T16:17:03;5.10;91.80
30999;DHT22;20549;50.042;8.968;2023-01-19T16:19:30;5.10;91.80
30999;DHT22;20549;50.042;8.968;2023-01-19T16:21:56;5.10;91.80
30999;DHT22;20549;50.042;8.968;2023-01-19T16:24:23;5.10;91.90
30999;DHT22;20549;50.042;8.968;2023-01-19T16:26:49;5.10;91.80
30999;DHT22;20549;50.042;8.968;2023-01-19T16:29:16;5.10;91.90
30999;DHT22;20549;50.042;8.968;2023-01-19T16:31:43;5.10;92.00
30999;DHT22;20549;50.042;8.968;2023-01-19T16:34:09;5.00;92.00
30999;DHT22;20549;50.042;8.968;2023-01-19T16:36:36;5.00;92.00
30999;DHT22;20549;50.042;8.968;2023-01-19T16:39:04;5.00;92.10